createdAt,value
2022-11-28T00:00:13.095Z,13.74
2022-11-28T00:01:12.437Z,13.77
2022-11-28T00:02:12.317Z,13.73
2022-11-28T00:03:12.071Z,13.68
2022-11-28T00:04:12.193Z,13.65
2022-11-28T00:05:12.200Z,13.63
2022-11-28T00:06:11.943Z,13.65
2022-11-28T00:07:11.492Z,13.68
2022-11-28T00:08:12.116Z,13.65
2022-11-28T00:09:11.761Z,13.67
2022-11-28T00:10:12.563Z,13.68
2022-11-28T00:11:12.464Z,13.71
2022-11-28T00:12:12.381Z,13.71
2022-11-28T00:13:11.596Z,13.70
2022-11-28T00:14:12.536Z,13.72
2022-11-28T00:15:12.308Z,13.67
2022-11-28T00:16:12.137Z,13.70
2022-11-28T00:17:12.170Z,13.74
2022-11-28T00:18:11.698Z,13.78
2022-11-28T00:19:12.448Z,13.75
2022-11-28T00:20:12.381Z,13.76
2022-11-28T00:21:11.794Z,13.77
2022-11-28T00:22:11.538Z,13.78
2022-11-28T00:23:11.981Z,13.77
2022-11-28T00:24:12.632Z,13.77
2022-11-28T00:25:12.662Z,13.76
2022-11-28T00:26:12.434Z,13.75
2022-11-28T00:27:12.134Z,13.76
2022-11-28T00:28:11.990Z,13.77
2022-11-28T00:29:12.149Z,13.77
2022-11-28T00:30:12.446Z,13.76
2022-11-28T00:31:12.356Z,13.77
2022-11-28T00:32:11.844Z,13.77
2022-11-28T00:33:12.582Z,13.75
2022-11-28T00:34:12.118Z,13.75
2022-11-28T00:35:12.792Z,13.70
2022-11-28T00:36:11.502Z,13.71
2022-11-28T00:37:12.196Z,13.72
2022-11-28T00:38:12.042Z,13.70
2022-11-28T00:39:12.279Z,13.67
2022-11-28T00:40:11.903Z,13.71
2022-11-28T00:41:11.684Z,13.70
2022-11-28T00:42:12.311Z,13.68
2022-11-28T00:43:11.755Z,13.65
2022-11-28T00:44:12.500Z,13.61
2022-11-28T00:45:12.424Z,13.56
2022-11-28T00:46:12.171Z,13.56
2022-11-28T00:47:12.135Z,13.56
2022-11-28T00:48:11.962Z,13.53
2022-11-28T00:49:11.553Z,13.56
2022-11-28T00:50:12.447Z,13.55
2022-11-28T00:51:11.998Z,13.55
2022-11-28T00:52:11.479Z,13.52
2022-11-28T00:53:11.843Z,13.5
2022-11-28T00:54:11.460Z,13.50
2022-11-28T00:55:11.867Z,13.47
2022-11-28T00:56:12.137Z,13.45
2022-11-28T00:57:11.850Z,13.47
2022-11-28T00:58:12.505Z,13.42
2022-11-28T00:59:12.175Z,13.33
2022-11-28T01:00:12.486Z,13.37
2022-11-28T01:01:14.260Z,13.39
2022-11-28T01:02:11.786Z,13.39
2022-11-28T01:03:11.779Z,13.38
2022-11-28T01:04:12.336Z,13.37
2022-11-28T01:05:12.413Z,13.35
2022-11-28T01:06:11.953Z,13.37
2022-11-28T01:07:12.652Z,13.33
2022-11-28T01:08:12.112Z,13.32
2022-11-28T01:09:12.329Z,13.33
2022-11-28T01:10:11.987Z,13.28
2022-11-28T01:11:12.399Z,13.26
2022-11-28T01:12:11.627Z,13.23
2022-11-28T01:13:12.516Z,13.23
2022-11-28T01:14:11.931Z,13.21
2022-11-28T01:15:11.842Z,13.14
2022-11-28T01:16:11.615Z,13.11
2022-11-28T01:17:12.649Z,13.26
2022-11-28T01:18:12.120Z,13.16
2022-11-28T01:19:11.738Z,13.08
2022-11-28T01:20:12.859Z,13.02
2022-11-28T01:21:12.367Z,13.02
2022-11-28T01:22:11.792Z,13.03
2022-11-28T01:23:12.281Z,12.99
2022-11-28T01:24:11.761Z,12.97
2022-11-28T01:25:12.243Z,12.90
2022-11-28T01:26:11.953Z,12.91
2022-11-28T01:27:12.458Z,12.93
2022-11-28T01:28:11.896Z,12.93
2022-11-28T01:29:12.191Z,12.95
2022-11-28T01:30:11.769Z,12.88
2022-11-28T01:31:12.403Z,12.92
2022-11-28T01:32:12.236Z,12.96
2022-11-28T01:33:11.712Z,12.96
2022-11-28T01:34:12.180Z,13.01
2022-11-28T01:35:12.426Z,12.97
2022-11-28T01:36:11.915Z,12.91
2022-11-28T01:37:12.226Z,12.89
2022-11-28T01:38:11.809Z,12.92
2022-11-28T01:39:11.726Z,12.90
2022-11-28T01:40:12.731Z,12.94
2022-11-28T01:41:12.778Z,12.98
2022-11-28T01:42:12.374Z,13.00
2022-11-28T01:43:11.581Z,12.98
2022-11-28T01:44:11.818Z,12.98
2022-11-28T01:45:12.506Z,12.98
2022-11-28T01:46:11.976Z,12.98
2022-11-28T01:47:12.286Z,12.99
2022-11-28T01:48:11.906Z,13.02
2022-11-28T01:49:12.129Z,13.06
2022-11-28T01:50:11.789Z,13.05
2022-11-28T01:51:12.477Z,13.06
2022-11-28T01:52:12.098Z,13.09
2022-11-28T01:53:12.425Z,13.04
2022-11-28T01:54:11.599Z,13.08
2022-11-28T01:55:12.168Z,13.14
2022-11-28T01:56:11.776Z,13.18
2022-11-28T01:57:12.058Z,13.19
2022-11-28T01:58:12.355Z,13.23
2022-11-28T01:59:11.707Z,13.24
2022-11-28T02:00:12.725Z,13.27
2022-11-28T02:01:12.547Z,13.28
2022-11-28T02:02:12.252Z,13.27
2022-11-28T02:03:11.833Z,13.23
2022-11-28T02:04:12.538Z,13.26
2022-11-28T02:05:11.871Z,13.32
2022-11-28T02:06:12.182Z,13.36
2022-11-28T02:07:12.054Z,13.33
2022-11-28T02:08:11.663Z,13.29
2022-11-28T02:09:12.211Z,13.28
2022-11-28T02:10:11.854Z,13.22
2022-11-28T02:11:11.517Z,13.21
2022-11-28T02:12:11.651Z,13.25
2022-11-28T02:13:11.689Z,13.25
2022-11-28T02:14:12.228Z,13.21
2022-11-28T02:15:12.093Z,13.18
2022-11-28T02:16:11.607Z,13.21
2022-11-28T02:17:12.203Z,13.18
2022-11-28T02:18:11.946Z,13.18
2022-11-28T02:19:13.206Z,13.27
2022-11-28T02:20:12.260Z,13.29
2022-11-28T02:21:12.512Z,13.23
2022-11-28T02:22:11.774Z,13.21
2022-11-28T02:23:11.965Z,13.22
2022-11-28T02:24:11.696Z,13.18
2022-11-28T02:25:12.166Z,13.23
2022-11-28T02:26:11.871Z,13.22
2022-11-28T02:27:12.303Z,13.23
2022-11-28T02:28:11.812Z,13.26
2022-11-28T02:29:11.916Z,13.27
2022-11-28T02:30:12.763Z,13.29
2022-11-28T02:31:12.312Z,13.28
2022-11-28T02:32:11.754Z,13.28
2022-11-28T02:33:12.384Z,13.29
2022-11-28T02:34:11.833Z,13.35
2022-11-28T02:35:12.381Z,13.39
2022-11-28T02:36:11.949Z,13.34
2022-11-28T02:37:12.474Z,13.34
2022-11-28T02:38:11.534Z,13.37
2022-11-28T02:39:11.892Z,13.42
2022-11-28T02:40:12.519Z,13.46
2022-11-28T02:41:11.987Z,13.5
2022-11-28T02:42:12.241Z,13.51
2022-11-28T02:43:11.727Z,13.54
2022-11-28T02:44:12.073Z,13.59
2022-11-28T02:45:12.929Z,13.60
2022-11-28T02:46:12.255Z,13.60
2022-11-28T02:47:11.815Z,13.62
2022-11-28T02:48:11.563Z,13.64
2022-11-28T02:49:12.231Z,13.68
2022-11-28T02:50:11.555Z,13.71
2022-11-28T02:51:11.890Z,13.71
2022-11-28T02:52:12.261Z,13.71
2022-11-28T02:53:12.416Z,13.72
2022-11-28T02:54:11.757Z,13.74
2022-11-28T02:55:12.672Z,13.73
2022-11-28T02:56:12.060Z,13.80
2022-11-28T02:57:12.284Z,13.84
2022-11-28T02:58:11.984Z,13.81
2022-11-28T02:59:12.404Z,13.80
2022-11-28T03:00:17.680Z,13.78
2022-11-28T03:01:12.094Z,13.75
2022-11-28T03:02:11.729Z,13.75
2022-11-28T03:03:11.775Z,13.73
2022-11-28T03:04:12.313Z,13.80
2022-11-28T03:05:12.936Z,13.77
2022-11-28T03:06:12.474Z,13.80
2022-11-28T03:07:12.002Z,13.77
2022-11-28T03:08:11.615Z,13.76
2022-11-28T03:09:12.049Z,13.75
2022-11-28T03:10:12.659Z,13.70
2022-11-28T03:11:12.207Z,13.64
2022-11-28T03:12:11.989Z,13.65
2022-11-28T03:13:11.983Z,13.66
2022-11-28T03:14:11.245Z,13.65
2022-11-28T03:15:12.922Z,13.67
2022-11-28T03:16:11.506Z,13.71
2022-11-28T03:17:11.620Z,13.71
2022-11-28T03:18:12.329Z,13.68
2022-11-28T03:19:11.955Z,13.70
2022-11-28T03:20:12.105Z,13.71
2022-11-28T03:21:12.228Z,13.73
2022-11-28T03:22:12.169Z,13.76
2022-11-28T03:23:11.932Z,13.77
2022-11-28T03:24:11.727Z,13.76
2022-11-28T03:25:12.411Z,13.76
2022-11-28T03:26:11.929Z,13.73
2022-11-28T03:27:12.560Z,13.69
2022-11-28T03:28:12.250Z,13.72
2022-11-28T03:29:12.678Z,13.68
2022-11-28T03:30:12.709Z,13.66
2022-11-28T03:31:12.478Z,13.64
2022-11-28T03:32:12.323Z,13.67
2022-11-28T03:33:17.067Z,13.64
2022-11-28T03:34:11.713Z,13.64
2022-11-28T03:35:12.623Z,13.67
2022-11-28T03:36:12.281Z,13.68
2022-11-28T03:37:11.827Z,13.66
2022-11-28T03:38:12.579Z,13.66
2022-11-28T03:39:11.953Z,13.63
2022-11-28T03:40:12.229Z,13.67
2022-11-28T03:41:11.653Z,13.66
2022-11-28T03:42:12.161Z,13.66
2022-11-28T03:43:11.805Z,13.69
2022-11-28T03:44:12.810Z,13.69
2022-11-28T03:45:12.474Z,13.69
2022-11-28T03:46:12.095Z,13.69
2022-11-28T03:47:11.970Z,13.68
2022-11-28T03:48:12.307Z,13.68
2022-11-28T03:49:11.819Z,13.68
2022-11-28T03:50:12.464Z,13.66
2022-11-28T03:51:12.004Z,13.64
2022-11-28T03:52:11.763Z,13.67
2022-11-28T03:53:12.234Z,13.67
2022-11-28T03:54:11.886Z,13.68
2022-11-28T03:55:12.325Z,13.68
2022-11-28T03:56:11.823Z,13.69
2022-11-28T03:57:12.446Z,13.71
2022-11-28T03:58:11.957Z,13.69
2022-11-28T03:59:12.526Z,13.70
2022-11-28T04:00:12.451Z,13.70
2022-11-28T04:01:12.374Z,13.71
2022-11-28T04:02:12.087Z,13.73
2022-11-28T04:03:11.617Z,13.75
2022-11-28T04:04:12.120Z,13.78
2022-11-28T04:05:12.942Z,13.77
2022-11-28T04:06:11.658Z,13.73
2022-11-28T04:07:11.788Z,13.72
2022-11-28T04:08:11.572Z,13.74
2022-11-28T04:09:14.546Z,13.77
2022-11-28T04:10:12.450Z,13.77
2022-11-28T04:11:12.285Z,13.76
2022-11-28T04:12:11.914Z,13.73
2022-11-28T04:13:12.230Z,13.76
2022-11-28T04:14:11.885Z,13.77
2022-11-28T04:15:12.431Z,13.76
2022-11-28T04:16:12.322Z,13.77
2022-11-28T04:17:12.307Z,13.77
2022-11-28T04:18:11.592Z,13.75
2022-11-28T04:19:12.294Z,13.73
2022-11-28T04:20:12.511Z,13.72
2022-11-28T04:21:12.161Z,13.72
2022-11-28T04:22:11.695Z,13.69
2022-11-28T04:23:11.866Z,13.71
2022-11-28T04:24:11.609Z,13.76
2022-11-28T04:25:12.204Z,13.72
2022-11-28T04:26:12.105Z,13.73
2022-11-28T04:27:11.750Z,13.68
2022-11-28T04:28:12.033Z,13.67
2022-11-28T04:29:11.507Z,13.72
2022-11-28T04:30:12.224Z,13.72
2022-11-28T04:31:12.099Z,13.75
2022-11-28T04:32:12.138Z,13.73
2022-11-28T04:33:11.639Z,13.73
2022-11-28T04:34:11.579Z,13.70
2022-11-28T04:35:11.913Z,13.69
2022-11-28T04:36:11.687Z,13.65
2022-11-28T04:37:12.184Z,13.68
2022-11-28T04:38:11.886Z,13.65
2022-11-28T04:39:12.673Z,13.64
2022-11-28T04:40:12.456Z,13.66
2022-11-28T04:41:11.566Z,13.61
2022-11-28T04:42:12.547Z,13.59
2022-11-28T04:43:12.098Z,13.52
2022-11-28T04:44:11.845Z,13.46
2022-11-28T04:45:12.180Z,13.48
2022-11-28T04:46:11.999Z,13.5
2022-11-28T04:47:12.234Z,13.5
2022-11-28T04:48:11.898Z,13.46
2022-11-28T04:49:12.467Z,13.46
2022-11-28T04:50:12.355Z,13.47
2022-11-28T04:51:11.924Z,13.48
2022-11-28T04:52:12.364Z,13.5
2022-11-28T04:53:12.197Z,13.48
2022-11-28T04:54:11.732Z,13.48
2022-11-28T04:55:12.158Z,13.46
2022-11-28T04:56:11.652Z,13.47
2022-11-28T04:57:12.516Z,13.43
2022-11-28T04:58:12.042Z,13.40
2022-11-28T04:59:12.110Z,13.40
2022-11-28T05:00:12.469Z,13.41
2022-11-28T05:01:13.044Z,13.46
2022-11-28T05:02:12.218Z,13.45
2022-11-28T05:03:12.479Z,13.5
2022-11-28T05:04:12.458Z,13.47
2022-11-28T05:05:12.675Z,13.49
2022-11-28T05:06:12.510Z,13.46
2022-11-28T05:07:12.128Z,13.44
2022-11-28T05:08:12.104Z,13.47
2022-11-28T05:09:12.750Z,13.47
2022-11-28T05:10:12.339Z,13.48
2022-11-28T05:11:11.681Z,13.44
2022-11-28T05:12:12.258Z,13.44
2022-11-28T05:13:11.946Z,13.48
2022-11-28T05:14:11.561Z,13.50
2022-11-28T05:15:12.664Z,13.52
2022-11-28T05:16:12.484Z,13.55
2022-11-28T05:17:12.101Z,13.56
2022-11-28T05:18:11.809Z,13.57
2022-11-28T05:19:12.488Z,13.55
2022-11-28T05:20:12.857Z,13.58
2022-11-28T05:21:11.978Z,13.59
2022-11-28T05:22:11.982Z,13.56
2022-11-28T05:23:12.684Z,13.53
2022-11-28T05:24:12.471Z,13.55
2022-11-28T05:25:12.489Z,13.55
2022-11-28T05:26:12.443Z,13.57
2022-11-28T05:27:12.278Z,13.60
2022-11-28T05:28:12.128Z,13.56
2022-11-28T05:29:12.392Z,13.52
2022-11-28T05:30:12.377Z,13.55
2022-11-28T05:31:11.996Z,13.59
2022-11-28T05:32:11.946Z,13.48
2022-11-28T05:33:12.711Z,13.51
2022-11-28T05:34:11.579Z,13.52
2022-11-28T05:35:12.775Z,13.52
2022-11-28T05:36:13.174Z,13.55
2022-11-28T05:37:12.613Z,13.56
2022-11-28T05:38:13.728Z,13.59
2022-11-28T05:39:12.344Z,13.63
2022-11-28T05:40:12.061Z,13.62
2022-11-28T05:41:12.369Z,13.66
2022-11-28T05:42:12.227Z,13.63
2022-11-28T05:43:11.943Z,13.63
2022-11-28T05:44:12.629Z,13.63
2022-11-28T05:45:12.454Z,13.60
2022-11-28T05:46:12.367Z,13.61
2022-11-28T05:47:12.077Z,13.64
2022-11-28T05:48:11.739Z,13.57
2022-11-28T05:49:12.415Z,13.60
2022-11-28T05:50:12.354Z,13.62
2022-11-28T05:51:11.772Z,13.61
2022-11-28T05:52:12.379Z,13.61
2022-11-28T05:53:12.111Z,13.60
2022-11-28T05:54:11.600Z,13.61
2022-11-28T05:55:12.808Z,13.62
2022-11-28T05:56:12.481Z,13.65
2022-11-28T05:57:12.198Z,13.67
2022-11-28T05:58:16.720Z,13.66
2022-11-28T05:59:12.381Z,13.65
2022-11-28T06:00:13.154Z,13.65
2022-11-28T06:01:12.301Z,13.68
2022-11-28T06:02:12.204Z,13.68
2022-11-28T06:03:11.954Z,13.69
2022-11-28T06:04:11.845Z,13.61
2022-11-28T06:05:40.324Z,13.62
2022-11-28T06:06:12.325Z,13.57
2022-11-28T06:07:12.771Z,13.61
2022-11-28T06:08:20.681Z,13.65
2022-11-28T06:09:12.515Z,13.64
2022-11-28T06:10:12.721Z,13.65
2022-11-28T06:11:12.259Z,13.67
2022-11-28T06:12:12.137Z,13.67
2022-11-28T06:13:11.523Z,13.68
2022-11-28T06:14:12.351Z,13.69
2022-11-28T06:15:12.526Z,13.65
2022-11-28T06:16:12.074Z,13.63
2022-11-28T06:17:12.134Z,13.56
2022-11-28T06:18:11.721Z,13.56
2022-11-28T06:19:12.222Z,13.57
2022-11-28T06:20:12.821Z,13.60
2022-11-28T06:21:12.598Z,13.56
2022-11-28T06:22:12.225Z,13.57
2022-11-28T06:23:12.710Z,13.60
2022-11-28T06:24:12.593Z,13.58
2022-11-28T06:25:13.179Z,13.58
2022-11-28T06:26:26.286Z,13.59
2022-11-28T06:27:11.938Z,13.56
2022-11-28T06:28:11.885Z,13.60
2022-11-28T06:29:12.631Z,13.58
2022-11-28T06:30:12.925Z,13.60
2022-11-28T06:31:12.725Z,13.55
2022-11-28T06:32:12.424Z,13.55
2022-11-28T06:33:12.098Z,13.59
2022-11-28T06:34:12.039Z,13.60
2022-11-28T06:35:12.730Z,13.63
2022-11-28T06:36:12.469Z,13.64
2022-11-28T06:37:11.987Z,13.60
2022-11-28T06:38:14.373Z,13.60
2022-11-28T06:39:12.013Z,13.62
2022-11-28T06:40:11.911Z,13.62
2022-11-28T06:41:12.287Z,13.63
2022-11-28T06:42:11.898Z,13.67
2022-11-28T06:43:12.744Z,13.68
2022-11-28T06:44:12.657Z,13.68
2022-11-28T06:45:12.472Z,13.74
2022-11-28T06:46:15.936Z,13.75
2022-11-28T06:47:11.789Z,13.77
2022-11-28T06:48:11.944Z,13.79
2022-11-28T06:49:12.628Z,13.76
2022-11-28T06:50:12.411Z,13.69
2022-11-28T06:51:12.216Z,13.68
2022-11-28T06:52:11.881Z,13.64
2022-11-28T06:53:11.721Z,13.65
2022-11-28T06:54:12.526Z,13.67
2022-11-28T06:55:12.470Z,13.66
2022-11-28T06:56:12.180Z,13.63
2022-11-28T06:57:12.041Z,13.67
2022-11-28T06:58:11.537Z,13.68
2022-11-28T06:59:11.815Z,13.68
2022-11-28T07:00:13.585Z,13.69
2022-11-28T07:01:12.030Z,13.72
2022-11-28T07:02:12.046Z,13.69
2022-11-28T07:03:11.968Z,13.68
2022-11-28T07:04:12.084Z,13.67
2022-11-28T07:05:12.112Z,13.67
2022-11-28T07:07:16.273Z,13.72
2022-11-28T07:08:12.518Z,13.70
2022-11-28T07:09:12.411Z,13.67
2022-11-28T07:10:11.946Z,13.67
2022-11-28T07:11:12.192Z,13.69
2022-11-28T07:12:11.949Z,13.68
2022-11-28T07:13:11.629Z,13.66
2022-11-28T07:14:12.366Z,13.64
2022-11-28T07:15:12.299Z,13.66
2022-11-28T07:16:12.288Z,13.68
2022-11-28T07:17:12.052Z,13.64
2022-11-28T07:18:11.668Z,13.67
2022-11-28T07:19:11.558Z,13.72
2022-11-28T07:20:12.628Z,13.71
2022-11-28T07:21:12.227Z,13.70
2022-11-28T07:22:11.874Z,13.68
2022-11-28T07:23:12.601Z,13.66
2022-11-28T07:24:12.236Z,13.68
2022-11-28T07:25:11.719Z,13.61
2022-11-28T07:26:12.615Z,13.61
2022-11-28T07:27:12.722Z,13.63
2022-11-28T07:28:12.140Z,13.65
2022-11-28T07:29:12.321Z,13.67
2022-11-28T07:30:12.235Z,13.68
2022-11-28T07:31:12.347Z,13.68
2022-11-28T07:32:12.506Z,13.71
2022-11-28T07:33:11.906Z,13.72
2022-11-28T07:34:12.470Z,13.75
2022-11-28T07:35:13.015Z,13.75
2022-11-28T07:36:11.936Z,13.76
2022-11-28T07:37:12.095Z,13.77
2022-11-28T07:38:11.870Z,13.79
2022-11-28T07:39:12.405Z,13.79
2022-11-28T07:40:12.482Z,13.74
2022-11-28T07:41:12.095Z,13.75
2022-11-28T07:42:12.028Z,13.77
2022-11-28T07:43:12.021Z,13.81
2022-11-28T07:44:12.005Z,13.83
2022-11-28T07:45:11.888Z,13.86
2022-11-28T07:46:11.682Z,13.90
2022-11-28T07:47:12.670Z,13.93
2022-11-28T07:48:12.568Z,13.90
2022-11-28T07:49:12.245Z,13.97
2022-11-28T07:50:12.211Z,13.97
2022-11-28T07:51:11.744Z,13.97
2022-11-28T07:52:12.489Z,13.97
2022-11-28T07:53:13.068Z,13.98
2022-11-28T07:54:11.993Z,14.01
2022-11-28T07:55:12.863Z,14.02
2022-11-28T07:56:12.570Z,14.03
2022-11-28T07:57:13.361Z,14.05
2022-11-28T07:58:12.242Z,14.06
2022-11-28T07:59:12.329Z,14.09
2022-11-28T08:00:13.565Z,14.10
2022-11-28T08:01:12.632Z,14.09
2022-11-28T08:02:12.424Z,14.07
2022-11-28T08:03:12.495Z,14.09
2022-11-28T08:04:12.803Z,14.09
2022-11-28T08:05:12.907Z,14.11
2022-11-28T08:06:12.403Z,14.12
2022-11-28T08:07:11.898Z,14.13
2022-11-28T08:08:11.920Z,14.13
2022-11-28T08:09:12.744Z,14.13
2022-11-28T08:10:11.861Z,14.14
2022-11-28T08:11:12.568Z,14.15
2022-11-28T08:12:12.559Z,14.18
2022-11-28T08:13:12.344Z,14.20
2022-11-28T08:14:12.191Z,14.22
2022-11-28T08:15:11.839Z,14.23
2022-11-28T08:16:11.772Z,14.26
2022-11-28T08:17:14.960Z,14.26
2022-11-28T08:18:11.723Z,14.24
2022-11-28T08:19:12.503Z,14.28
2022-11-28T08:20:13.062Z,14.30
2022-11-28T08:21:12.134Z,14.32
2022-11-28T08:22:11.176Z,14.35
2022-11-28T08:23:17.778Z,14.36
2022-11-28T08:24:12.370Z,14.39
2022-11-28T08:25:17.456Z,14.38
2022-11-28T08:26:12.056Z,14.41
2022-11-28T08:27:12.600Z,14.41
2022-11-28T08:28:12.169Z,14.42
2022-11-28T08:29:12.002Z,14.43
2022-11-28T08:30:12.547Z,14.45
2022-11-28T08:31:12.550Z,14.45
2022-11-28T08:32:12.505Z,14.46
2022-11-28T08:33:12.199Z,14.47
2022-11-28T08:34:12.192Z,14.50
2022-11-28T08:35:11.765Z,14.53
2022-11-28T08:36:12.692Z,14.53
2022-11-28T08:37:11.964Z,14.54
2022-11-28T08:38:12.007Z,14.55
2022-11-28T08:39:24.104Z,14.51
2022-11-28T08:40:13.053Z,14.53
2022-11-28T08:41:12.348Z,14.54
2022-11-28T08:42:12.293Z,14.54
2022-11-28T08:43:12.012Z,14.53
2022-11-28T08:44:11.848Z,14.53
2022-11-28T08:45:12.486Z,14.56
2022-11-28T08:46:12.596Z,14.56
2022-11-28T08:47:12.108Z,14.57
2022-11-28T08:48:12.281Z,14.57
2022-11-28T08:49:12.153Z,14.61
2022-11-28T08:50:11.954Z,14.64
2022-11-28T08:51:12.445Z,14.67
2022-11-28T08:52:12.303Z,14.68
2022-11-28T08:53:12.652Z,14.69
2022-11-28T08:54:12.703Z,14.72
2022-11-28T08:55:12.080Z,14.72
2022-11-28T08:56:12.467Z,14.72
2022-11-28T08:57:12.837Z,14.73
2022-11-28T08:58:12.341Z,14.73
2022-11-28T08:59:11.949Z,14.72
2022-11-28T09:00:12.418Z,14.75
2022-11-28T09:01:11.826Z,14.76
2022-11-28T09:02:11.746Z,14.78
2022-11-28T09:03:12.628Z,14.77
2022-11-28T09:04:13.158Z,14.77
2022-11-28T09:05:12.660Z,14.79
2022-11-28T09:06:12.495Z,14.78
2022-11-28T09:07:12.778Z,14.79
2022-11-28T09:08:12.525Z,14.80
2022-11-28T09:09:12.273Z,14.80
2022-11-28T09:10:11.904Z,14.79
2022-11-28T09:11:11.789Z,14.78
2022-11-28T09:12:11.601Z,14.79
2022-11-28T09:13:12.260Z,14.78
2022-11-28T09:14:12.040Z,14.77
2022-11-28T09:15:12.768Z,14.77
2022-11-28T09:16:12.095Z,14.77
2022-11-28T09:17:11.891Z,14.77
2022-11-28T09:18:11.691Z,14.77
2022-11-28T09:19:12.089Z,14.77
2022-11-28T09:20:11.736Z,14.77
2022-11-28T09:21:12.286Z,14.77
2022-11-28T09:22:12.028Z,14.75
2022-11-28T09:23:11.552Z,14.76
2022-11-28T09:24:12.240Z,14.78
2022-11-28T09:25:12.684Z,14.81
2022-11-28T09:26:12.060Z,14.80
2022-11-28T09:27:12.434Z,14.85
2022-11-28T09:28:12.202Z,14.87
2022-11-28T09:29:11.586Z,14.91
2022-11-28T09:30:12.705Z,14.94
2022-11-28T09:31:12.641Z,14.96
2022-11-28T09:32:12.766Z,14.97
2022-11-28T09:33:11.943Z,15.00
2022-11-28T09:34:12.562Z,15.02
2022-11-28T09:35:12.059Z,15.04
2022-11-28T09:36:11.881Z,15.06
2022-11-28T09:37:12.416Z,15.06
2022-11-28T09:38:11.994Z,15.05
2022-11-28T09:39:12.519Z,15.06
2022-11-28T09:40:13.702Z,15.06
2022-11-28T09:41:12.125Z,15.06
2022-11-28T09:42:12.122Z,15.06
2022-11-28T09:43:11.624Z,15.06
2022-11-28T09:44:12.371Z,15.06
2022-11-28T09:45:13.028Z,15.09
2022-11-28T09:46:11.867Z,15.08
2022-11-28T09:47:12.533Z,15.08
2022-11-28T09:48:12.414Z,15.09
2022-11-28T09:49:12.055Z,15.06
2022-11-28T09:50:11.765Z,15.07
2022-11-28T09:51:11.980Z,15.07
2022-11-28T09:52:12.854Z,15.07
2022-11-28T09:53:12.426Z,15.06
2022-11-28T09:54:11.838Z,15.05
2022-11-28T09:55:12.173Z,15.05
2022-11-28T09:56:12.003Z,15.04
2022-11-28T09:57:12.506Z,15.04
2022-11-28T09:58:12.025Z,15.06
2022-11-28T09:59:11.484Z,15.05
2022-11-28T10:00:12.868Z,15.06
2022-11-28T10:01:11.743Z,15.05
2022-11-28T10:02:12.666Z,15.07
2022-11-28T10:03:12.061Z,15.10
2022-11-28T10:04:12.304Z,15.11
2022-11-28T10:05:12.605Z,15.12
2022-11-28T10:06:12.561Z,15.13
2022-11-28T10:07:12.082Z,15.13
2022-11-28T10:08:11.786Z,15.15
2022-11-28T10:09:12.334Z,15.15
2022-11-28T10:10:11.681Z,15.14
2022-11-28T10:11:12.191Z,15.17
2022-11-28T10:12:11.897Z,15.19
2022-11-28T10:13:12.682Z,15.21
2022-11-28T10:14:12.157Z,15.22
2022-11-28T10:15:12.031Z,15.22
2022-11-28T10:16:11.559Z,15.22
2022-11-28T10:17:12.085Z,15.25
2022-11-28T10:18:12.277Z,15.23
2022-11-28T10:19:20.617Z,15.25
2022-11-28T10:20:12.092Z,15.23
2022-11-28T10:21:12.646Z,15.25
2022-11-28T10:22:12.587Z,15.25
2022-11-28T10:23:11.741Z,15.25
2022-11-28T10:24:12.675Z,15.27
2022-11-28T10:25:12.789Z,15.29
2022-11-28T10:26:12.532Z,15.29
2022-11-28T10:27:12.418Z,15.30
2022-11-28T10:28:12.896Z,15.28
2022-11-28T10:29:12.650Z,15.29
2022-11-28T10:30:12.979Z,15.31
2022-11-28T10:31:12.837Z,15.32
2022-11-28T10:32:12.291Z,15.33
2022-11-28T10:33:12.751Z,15.34
2022-11-28T10:34:12.160Z,15.36
2022-11-28T10:35:12.673Z,15.38
2022-11-28T10:36:12.337Z,15.36
2022-11-28T10:37:13.044Z,15.37
2022-11-28T10:38:11.766Z,15.36
2022-11-28T10:39:12.336Z,15.37
2022-11-28T10:40:12.392Z,15.35
2022-11-28T10:41:12.271Z,15.36
2022-11-28T10:42:16.788Z,15.37
2022-11-28T10:43:12.782Z,15.39
2022-11-28T10:44:17.064Z,15.38
2022-11-28T10:45:11.834Z,15.42
2022-11-28T10:46:17.682Z,15.43
2022-11-28T10:47:12.285Z,15.47
2022-11-28T10:48:38.429Z,15.49
2022-11-28T10:49:12.830Z,15.48
2022-11-28T10:50:12.915Z,15.5
2022-11-28T10:51:12.561Z,15.49
2022-11-28T10:52:17.279Z,15.51
2022-11-28T10:53:11.886Z,15.51
2022-11-28T10:54:12.702Z,15.51
2022-11-28T10:55:12.371Z,15.51
2022-11-28T10:56:12.322Z,15.53
2022-11-28T10:57:12.508Z,15.53
2022-11-28T10:58:12.172Z,15.55
2022-11-28T10:59:11.729Z,15.56
2022-11-28T11:00:21.333Z,15.58
2022-11-28T11:01:12.870Z,15.57
2022-11-28T11:02:11.659Z,15.58
2022-11-28T11:03:12.675Z,15.59
2022-11-28T11:04:26.197Z,15.62
2022-11-28T11:05:12.473Z,15.60
2022-11-28T11:06:11.701Z,15.60
2022-11-28T11:07:17.693Z,15.55
2022-11-28T11:08:11.555Z,15.54
2022-11-28T11:09:12.383Z,15.54
2022-11-28T11:10:12.347Z,15.54
2022-11-28T11:11:12.157Z,15.55
2022-11-28T11:12:26.129Z,15.55
2022-11-28T11:13:11.672Z,15.55
2022-11-28T11:14:12.089Z,15.57
2022-11-28T11:16:12.601Z,15.60
2022-11-28T11:17:12.535Z,15.60
2022-11-28T11:18:12.299Z,15.60
2022-11-28T11:19:11.665Z,15.60
2022-11-28T11:20:12.894Z,15.64
2022-11-28T11:21:12.364Z,15.65
2022-11-28T11:22:12.218Z,15.64
2022-11-28T11:23:11.939Z,15.64
2022-11-28T11:24:11.560Z,15.67
2022-11-28T11:25:12.365Z,15.69
2022-11-28T11:26:11.934Z,15.67
2022-11-28T11:27:12.579Z,15.69
2022-11-28T11:28:12.403Z,15.70
2022-11-28T11:29:11.896Z,15.68
2022-11-28T11:30:12.367Z,15.71
2022-11-28T11:31:12.446Z,15.72
2022-11-28T11:32:12.683Z,15.71
2022-11-28T11:33:12.335Z,15.72
2022-11-28T11:34:12.060Z,15.70
2022-11-28T11:35:12.833Z,15.68
2022-11-28T11:36:12.457Z,15.72
2022-11-28T11:37:11.773Z,15.72
2022-11-28T11:38:12.422Z,15.73
2022-11-28T11:39:11.697Z,15.73
2022-11-28T11:40:12.636Z,15.73
2022-11-28T11:41:12.441Z,15.72
2022-11-28T11:42:11.856Z,15.75
2022-11-28T11:43:12.531Z,15.76
2022-11-28T11:44:11.985Z,15.77
2022-11-28T11:45:12.467Z,15.81
2022-11-28T11:46:12.016Z,15.82
2022-11-28T11:47:12.457Z,15.82
2022-11-28T11:48:11.847Z,15.82
2022-11-28T11:49:12.419Z,15.84
2022-11-28T11:50:12.119Z,15.84
2022-11-28T11:51:11.439Z,15.86
2022-11-28T11:52:12.315Z,15.88
2022-11-28T11:53:12.108Z,15.91
2022-11-28T11:54:11.202Z,15.92
2022-11-28T11:55:12.716Z,15.94
2022-11-28T11:56:11.997Z,15.97
2022-11-28T11:57:31.953Z,15.97
2022-11-28T11:58:11.446Z,16.00
2022-11-28T11:59:11.979Z,16.01
2022-11-28T12:00:13.293Z,16.02
2022-11-28T12:01:12.108Z,16.04
2022-11-28T12:02:11.833Z,16.06
2022-11-28T12:03:12.766Z,16.08
2022-11-28T12:04:30.657Z,16.08
2022-11-28T12:05:12.366Z,16.12
2022-11-28T12:06:14.641Z,16.12
2022-11-28T12:07:12.224Z,16.12
2022-11-28T12:08:11.610Z,16.14
2022-11-28T12:09:11.918Z,16.17
2022-11-28T12:10:11.921Z,16.18
2022-11-28T12:11:11.824Z,16.19
2022-11-28T12:12:11.684Z,16.21
2022-11-28T12:13:12.097Z,16.20
2022-11-28T12:14:11.600Z,16.20
2022-11-28T12:15:13.221Z,16.20
2022-11-28T12:16:11.930Z,16.22
2022-11-28T12:17:40.584Z,16.20
2022-11-28T12:18:11.443Z,16.21
2022-11-28T12:19:12.105Z,16.21
2022-11-28T12:20:12.137Z,16.21
2022-11-28T12:21:11.871Z,16.20
2022-11-28T12:22:11.859Z,16.22
2022-11-28T12:23:17.200Z,16.21
2022-11-28T12:24:11.745Z,16.20
2022-11-28T12:25:12.263Z,16.21
2022-11-28T12:26:12.024Z,16.21
2022-11-28T12:27:11.654Z,16.22
2022-11-28T12:28:12.401Z,16.24
2022-11-28T12:29:11.751Z,16.25
2022-11-28T12:30:12.855Z,16.25
2022-11-28T12:31:12.410Z,16.30
2022-11-28T12:32:12.046Z,16.29
2022-11-28T12:33:12.057Z,16.33
2022-11-28T12:34:11.485Z,16.34
2022-11-28T12:35:12.074Z,16.36
2022-11-28T12:36:11.950Z,16.37
2022-11-28T12:37:12.502Z,16.38
2022-11-28T12:38:12.405Z,16.39
2022-11-28T12:39:12.275Z,16.39
2022-11-28T12:40:11.749Z,16.43
2022-11-28T12:41:11.373Z,16.45
2022-11-28T12:42:12.046Z,16.45
2022-11-28T12:43:11.505Z,16.48
2022-11-28T12:44:11.949Z,16.52
2022-11-28T12:45:12.159Z,16.53
2022-11-28T12:46:11.526Z,16.54
2022-11-28T12:47:11.782Z,16.54
2022-11-28T12:48:11.972Z,16.56
2022-11-28T12:49:12.426Z,16.56
2022-11-28T12:50:12.232Z,16.59
2022-11-28T12:51:12.402Z,16.59
2022-11-28T12:52:12.240Z,16.61
2022-11-28T12:53:11.656Z,16.63
2022-11-28T12:54:12.053Z,16.64